createdAt,value
2022-08-01T00:00:10.041Z,3.40
2022-08-01T00:02:41.121Z,3.80
2022-08-01T00:05:09.941Z,3.40
2022-08-01T00:07:36.656Z,3.30
2022-08-01T00:10:11.922Z,3.00
2022-08-01T00:12:39.398Z,3.10
2022-08-01T00:15:08.119Z,2.90
2022-08-01T00:17:34.965Z,3.00
2022-08-01T00:20:03.408Z,3.00
2022-08-01T00:22:32.245Z,2.80
2022-08-01T00:24:58.852Z,2.90
2022-08-01T00:27:25.422Z,3.10
2022-08-01T00:30:09.734Z,3.70
2022-08-01T00:32:39.100Z,3.40
2022-08-01T00:35:06.011Z,3.70
2022-08-01T00:37:32.736Z,3.60
2022-08-01T00:39:59.231Z,3.20
2022-08-01T00:42:25.789Z,3.90
2022-08-01T00:44:52.347Z,4.10
2022-08-01T00:47:18.971Z,4.40
2022-08-01T00:49:45.836Z,3.90
2022-08-01T00:52:12.728Z,3.70
2022-08-01T00:54:40.105Z,3.20
2022-08-01T00:57:10.821Z,3.40
2022-08-01T00:59:39.857Z,3.30
2022-08-01T01:02:15.760Z,3.40
2022-08-01T01:04:44.086Z,3.30
2022-08-01T01:07:49.895Z,3.30
2022-08-01T01:10:47.874Z,3.40
2022-08-01T01:13:36.509Z,3.40
2022-08-01T01:16:20.919Z,3.20
2022-08-01T01:19:03.808Z,3.60
2022-08-01T01:21:48.201Z,3.50
2022-08-01T01:24:46.496Z,3.60
2022-08-01T01:27:21.814Z,4.50
2022-08-01T01:30:00.741Z,3.90
2022-08-01T01:32:47.338Z,3.60
2022-08-01T01:35:21.674Z,4.40
2022-08-01T01:37:52.006Z,4.50
2022-08-01T01:40:20.381Z,4.30
2022-08-01T01:42:48.644Z,3.90
2022-08-01T01:45:16.952Z,3.90
2022-08-01T01:47:46.601Z,4.20
2022-08-01T01:50:14.767Z,4.30
2022-08-01T01:52:45.174Z,4.50
2022-08-01T01:55:14.347Z,4.40
2022-08-01T01:57:45.331Z,4.10
2022-08-01T02:00:15.180Z,4.30
2022-08-01T02:02:44.125Z,4.40
2022-08-01T02:05:14.171Z,4.40
2022-08-01T02:07:42.354Z,4.50
2022-08-01T02:13:07.508Z,4.40
2022-08-01T02:15:39.268Z,4.50
2022-08-01T02:18:26.290Z,4.10
2022-08-01T02:20:58.762Z,4.40
2022-08-01T02:23:33.815Z,4.10
2022-08-01T02:26:10.905Z,3.70
2022-08-01T02:29:00.379Z,3.60
2022-08-01T02:31:33.159Z,3.90
2022-08-01T02:34:11.022Z,4.10
2022-08-01T02:36:39.266Z,3.80
2022-08-01T02:39:12.567Z,3.80
2022-08-01T02:41:44.584Z,3.70
2022-08-01T02:44:24.520Z,3.80
2022-08-01T02:46:58.685Z,3.80
2022-08-01T02:49:27.983Z,3.50
2022-08-01T02:51:56.901Z,3.80
2022-08-01T02:54:24.664Z,3.60
2022-08-01T02:56:53.649Z,3.80
2022-08-01T02:59:26.743Z,3.70
2022-08-01T03:01:56.977Z,3.70
2022-08-01T03:04:26.148Z,4.00
2022-08-01T03:06:55.983Z,4.00
2022-08-01T03:09:23.925Z,3.70
2022-08-01T03:11:52.133Z,3.50
2022-08-01T03:14:22.457Z,3.70
2022-08-01T03:16:52.586Z,3.70
2022-08-01T03:19:24.168Z,3.70
2022-08-01T03:21:53.025Z,3.90
2022-08-01T03:24:22.718Z,3.70
2022-08-01T03:26:52.278Z,3.50
2022-08-01T03:29:25.631Z,3.60
2022-08-01T03:31:53.446Z,3.50
2022-08-01T03:34:23.485Z,4.00
2022-08-01T03:37:03.113Z,4.20
2022-08-01T03:39:38.184Z,3.70
2022-08-01T03:42:16.951Z,4.00
2022-08-01T03:44:55.199Z,3.60
2022-08-01T03:47:30.770Z,3.80
2022-08-01T03:49:59.292Z,3.50
2022-08-01T03:52:30.087Z,3.60
2022-08-01T03:55:00.289Z,3.40
2022-08-01T03:57:35.966Z,3.30
2022-08-01T04:00:10.339Z,3.30
2022-08-01T04:02:38.735Z,3.70
2022-08-01T04:05:06.600Z,3.60
2022-08-01T04:07:37.125Z,3.80
2022-08-01T04:10:05.637Z,3.40
2022-08-01T04:12:33.593Z,3.80
2022-08-01T04:15:00.454Z,3.80
2022-08-01T04:17:27.066Z,3.90
2022-08-01T04:19:53.627Z,4.20
2022-08-01T04:22:20.692Z,3.40
2022-08-01T04:24:57.054Z,4.00
2022-08-01T04:27:49.681Z,3.90
2022-08-01T04:30:25.526Z,4.10
2022-08-01T04:32:56.391Z,4.00
2022-08-01T04:36:02.130Z,4.40
2022-08-01T04:38:18.569Z,4.40
2022-08-01T04:40:47.120Z,4.20
2022-08-01T04:43:15.149Z,4.20
2022-08-01T04:45:44.739Z,4.00
2022-08-01T04:48:16.237Z,4.70
2022-08-01T04:50:42.917Z,4.40
2022-08-01T04:53:18.701Z,4.30
2022-08-01T04:55:47.002Z,4.40
2022-08-01T04:58:18.510Z,4.50
2022-08-01T05:00:46.517Z,4.50
2022-08-01T05:03:13.586Z,4.30
2022-08-01T05:05:40.189Z,4.30
2022-08-01T05:08:07.258Z,4.70
2022-08-01T05:10:35.233Z,5.20
2022-08-01T05:13:02.078Z,5.20
2022-08-01T05:15:28.656Z,4.50
2022-08-01T05:17:55.702Z,5.00
2022-08-01T05:20:22.293Z,4.60
2022-08-01T05:22:49.026Z,4.60
2022-08-01T05:25:20.268Z,5.00
2022-08-01T05:28:02.078Z,5.60
2022-08-01T05:30:30.067Z,5.20
2022-08-01T05:32:56.606Z,4.60
2022-08-01T05:35:24.062Z,4.20
2022-08-01T05:38:12.629Z,4.00
2022-08-01T05:40:41.568Z,3.90
2022-08-01T05:43:08.118Z,3.80
2022-08-01T05:45:34.622Z,4.20
2022-08-01T05:48:10.626Z,8.90
2022-08-01T05:50:37.092Z,6.50
2022-08-01T05:53:03.833Z,3.90
2022-08-01T05:55:30.432Z,9.80
2022-08-01T05:57:57.164Z,6.50
2022-08-01T06:00:24.294Z,8.40
2022-08-01T06:02:50.837Z,6.00
2022-08-01T06:05:17.319Z,4.40
2022-08-01T06:07:43.916Z,3.90
2022-08-01T06:10:10.910Z,4.60
2022-08-01T06:12:38.490Z,16.90
2022-08-01T06:15:07.008Z,8.40
2022-08-01T06:17:34.847Z,6.00
2022-08-01T06:20:01.565Z,4.30
2022-08-01T06:22:28.164Z,4.10
2022-08-01T06:24:54.925Z,5.40
2022-08-01T06:27:22.850Z,5.40
2022-08-01T06:29:53.814Z,6.60
2022-08-01T06:32:26.760Z,5.30
2022-08-01T06:34:54.431Z,4.60
2022-08-01T06:37:20.988Z,3.70
2022-08-01T06:39:47.692Z,3.90
2022-08-01T06:42:15.849Z,3.30
2022-08-01T06:44:42.538Z,3.10
2022-08-01T06:47:09.200Z,3.30
2022-08-01T06:49:35.971Z,4.00
2022-08-01T06:52:04.478Z,3.10
2022-08-01T06:54:31.246Z,3.70
2022-08-01T06:56:57.806Z,3.70
2022-08-01T06:59:24.307Z,3.40
2022-08-01T07:01:50.980Z,3.60
2022-08-01T07:04:17.894Z,3.00
2022-08-01T07:06:44.418Z,3.90
2022-08-01T07:09:14.215Z,2.80
2022-08-01T07:11:41.320Z,3.30
2022-08-01T07:14:07.891Z,3.00
2022-08-01T07:16:34.493Z,2.90
2022-08-01T07:19:00.989Z,2.70
2022-08-01T07:21:39.303Z,2.90
2022-08-01T07:24:13.904Z,2.80
2022-08-01T07:26:53.073Z,3.60
2022-08-01T07:29:23.815Z,3.20
2022-08-01T07:31:51.303Z,2.90
2022-08-01T07:34:17.840Z,3.10
2022-08-01T07:36:44.357Z,2.60
2022-08-01T07:39:10.917Z,2.40
2022-08-01T07:41:53.069Z,2.50
2022-08-01T07:44:24.317Z,2.90
2022-08-01T07:46:54.985Z,2.80
2022-08-01T07:49:22.793Z,4.70
2022-08-01T07:52:13.279Z,3.00
2022-08-01T07:54:36.836Z,4.80
2022-08-01T07:57:04.532Z,3.60
2022-08-01T07:59:31.584Z,3.00
2022-08-01T08:01:58.727Z,2.90
2022-08-01T08:04:26.190Z,2.70
2022-08-01T08:06:54.411Z,2.40
2022-08-01T08:09:21.475Z,2.50
2022-08-01T08:11:48.614Z,2.50
2022-08-01T08:14:19.564Z,2.50
2022-08-01T08:16:47.035Z,2.50
2022-08-01T08:19:13.814Z,2.50
2022-08-01T08:21:41.224Z,2.70
2022-08-01T08:24:26.947Z,2.60
2022-08-01T08:27:04.302Z,2.40
2022-08-01T08:29:33.477Z,2.40
2022-08-01T08:32:01.961Z,2.90
2022-08-01T08:34:29.937Z,3.30
2022-08-01T08:36:58.795Z,2.40
2022-08-01T08:39:27.008Z,2.60
2022-08-01T08:41:53.861Z,4.00
2022-08-01T08:44:21.233Z,2.60
2022-08-01T08:46:53.525Z,4.20
2022-08-01T08:49:24.551Z,2.90
2022-08-01T08:51:53.339Z,2.50
2022-08-01T08:54:30.812Z,2.30
2022-08-01T08:56:59.801Z,2.70
2022-08-01T08:59:27.639Z,2.70
2022-08-01T09:01:54.256Z,2.10
2022-08-01T09:04:26.325Z,2.50
2022-08-01T09:06:55.027Z,2.50
2022-08-01T09:09:23.053Z,2.30
2022-08-01T09:11:57.371Z,1.90
2022-08-01T09:14:33.483Z,2.10
2022-08-01T09:17:11.820Z,2.10
2022-08-01T09:19:45.273Z,2.40
2022-08-01T09:22:25.364Z,2.40
2022-08-01T09:25:11.994Z,2.30
2022-08-01T09:27:44.412Z,2.40
2022-08-01T09:30:23.761Z,1.90
2022-08-01T09:33:11.198Z,2.10
2022-08-01T09:35:46.411Z,1.90
2022-08-01T09:38:21.146Z,2.30
2022-08-01T09:40:51.421Z,2.20
2022-08-01T09:43:20.055Z,2.00
2022-08-01T09:45:49.145Z,2.10
2022-08-01T09:48:18.687Z,2.40
2022-08-01T09:50:53.448Z,2.20
2022-08-01T09:53:30.443Z,2.40
2022-08-01T09:56:11.673Z,2.10
2022-08-01T09:59:00.439Z,2.40
2022-08-01T10:01:41.953Z,2.50
2022-08-01T10:04:18.296Z,2.50
2022-08-01T10:06:53.528Z,2.70
2022-08-01T10:09:40.183Z,2.30
2022-08-01T10:12:08.859Z,2.00
2022-08-01T10:14:38.541Z,2.30
2022-08-01T10:17:18.383Z,2.40
2022-08-01T10:19:47.345Z,2.30
2022-08-01T10:22:18.512Z,2.20
2022-08-01T10:24:48.880Z,2.10
2022-08-01T10:27:24.247Z,2.20
2022-08-01T10:30:15.457Z,2.90
2022-08-01T10:32:55.021Z,2.60
2022-08-01T10:35:45.901Z,2.30
2022-08-01T10:38:13.480Z,2.50
2022-08-01T10:40:42.893Z,2.30
2022-08-01T10:43:11.913Z,2.30
2022-08-01T10:45:40.962Z,2.40
2022-08-01T10:48:20.967Z,2.40
2022-08-01T10:50:52.481Z,2.00
2022-08-01T10:53:30.815Z,2.30
2022-08-01T10:56:04.066Z,2.20
2022-08-01T10:58:39.549Z,2.30
2022-08-01T11:01:15.887Z,2.20
2022-08-01T11:04:02.563Z,2.30
2022-08-01T11:06:33.498Z,2.30
2022-08-01T11:09:05.965Z,2.20
2022-08-01T11:11:37.590Z,2.20
2022-08-01T11:14:10.552Z,2.40
2022-08-01T11:16:40.897Z,2.30
2022-08-01T11:19:09.522Z,2.30
2022-08-01T11:21:56.817Z,2.20
2022-08-01T11:24:49.707Z,2.20
2022-08-01T11:27:24.973Z,2.20
2022-08-01T11:30:13.289Z,2.40
2022-08-01T11:33:11.378Z,2.20
2022-08-01T11:35:40.232Z,2.40
2022-08-01T11:38:35.025Z,2.40
2022-08-01T11:41:37.439Z,2.30
2022-08-01T11:44:26.645Z,2.40
2022-08-01T11:47:13.290Z,2.10
2022-08-01T11:49:49.148Z,2.40
2022-08-01T11:52:28.832Z,2.40
2022-08-01T11:55:04.247Z,2.50
2022-08-01T11:57:36.132Z,2.20
2022-08-01T12:00:24.432Z,2.40
2022-08-01T12:02:59.877Z,2.70
2022-08-01T12:05:31.455Z,2.30
2022-08-01T12:07:58.879Z,2.40
2022-08-01T12:10:36.928Z,2.30
2022-08-01T12:13:13.993Z,2.40
2022-08-01T12:15:40.634Z,2.60
2022-08-01T12:18:08.915Z,2.60
2022-08-01T12:20:42.749Z,2.50
2022-08-01T12:23:21.267Z,2.30
2022-08-01T12:25:53.114Z,2.40
2022-08-01T12:28:19.648Z,2.60
2022-08-01T12:30:50.263Z,2.60
2022-08-01T12:33:21.949Z,2.70
2022-08-01T12:35:49.159Z,2.70
2022-08-01T12:38:19.723Z,2.20
2022-08-01T12:40:53.199Z,2.30
2022-08-01T12:43:27.542Z,2.50
2022-08-01T12:46:01.008Z,2.80
2022-08-01T12:48:29.065Z,2.50
2022-08-01T12:50:59.151Z,2.50
2022-08-01T12:53:41.026Z,2.90
2022-08-01T12:56:10.508Z,2.70
2022-08-01T12:58:37.135Z,2.60
2022-08-01T13:01:08.120Z,2.80
2022-08-01T13:03:35.478Z,2.90
2022-08-01T13:06:02.226Z,2.90
2022-08-01T13:08:34.797Z,2.90
2022-08-01T13:11:09.814Z,2.90
2022-08-01T13:13:42.288Z,2.70
2022-08-01T13:16:15.497Z,2.90
2022-08-01T13:18:51.537Z,2.50
2022-08-01T13:21:21.933Z,2.80
2022-08-01T13:24:13.133Z,2.50
2022-08-01T13:26:50.262Z,3.00
2022-08-01T13:29:20.189Z,2.70
2022-08-01T13:31:47.339Z,2.90
2022-08-01T13:34:16.435Z,3.00
2022-08-01T13:36:49.100Z,2.90
2022-08-01T13:39:35.196Z,2.60
2022-08-01T13:42:01.742Z,3.30
2022-08-01T13:44:28.393Z,2.80
2022-08-01T13:46:54.933Z,2.50
2022-08-01T13:49:22.888Z,2.50
2022-08-01T13:51:51.609Z,2.70
2022-08-01T13:54:19.071Z,2.70
2022-08-01T13:56:45.911Z,2.50
2022-08-01T13:59:13.466Z,2.40
2022-08-01T14:01:40.209Z,2.60
2022-08-01T14:04:07.090Z,2.80
2022-08-01T14:06:36.003Z,2.70
2022-08-01T14:09:17.294Z,2.70
2022-08-01T14:11:45.983Z,2.60
2022-08-01T14:14:13.501Z,2.80
2022-08-01T14:16:40.423Z,2.80
2022-08-01T14:19:07.242Z,2.70
2022-08-01T14:21:34.067Z,2.70
2022-08-01T14:24:00.635Z,2.60
2022-08-01T14:26:27.109Z,2.40
2022-08-01T14:28:53.661Z,2.40
2022-08-01T14:31:20.185Z,2.60
2022-08-01T14:33:46.806Z,2.30
2022-08-01T14:36:30.426Z,2.40
2022-08-01T14:39:00.279Z,3.00
2022-08-01T14:41:28.401Z,2.80
2022-08-01T14:43:55.194Z,2.60
2022-08-01T14:46:21.799Z,2.70
2022-08-01T14:48:48.667Z,3.10
2022-08-01T14:51:15.347Z,2.90
2022-08-01T14:53:46.455Z,2.60
2022-08-01T14:56:13.911Z,2.70
2022-08-01T14:58:40.485Z,2.90
2022-08-01T15:01:07.219Z,2.80
2022-08-01T15:03:33.913Z,2.50
2022-08-01T15:06:00.647Z,2.60
2022-08-01T15:08:27.421Z,2.40
2022-08-01T15:10:54.070Z,2.30
2022-08-01T15:13:20.730Z,2.60
2022-08-01T15:15:47.946Z,3.20
2022-08-01T15:18:14.808Z,2.80
2022-08-01T15:20:41.765Z,2.80
2022-08-01T15:23:08.373Z,2.80
2022-08-01T15:25:40.843Z,3.00
2022-08-01T15:28:10.883Z,2.70
2022-08-01T15:30:37.840Z,2.60
2022-08-01T15:33:04.620Z,3.10
2022-08-01T15:35:31.180Z,3.20
2022-08-01T15:37:57.704Z,3.10
2022-08-01T15:40:24.882Z,3.30
2022-08-01T15:42:53.071Z,3.50
2022-08-01T15:45:45.762Z,3.10
2022-08-01T15:48:08.681Z,3.30
2022-08-01T15:50:35.502Z,3.20
2022-08-01T15:53:02.179Z,3.40
2022-08-01T15:55:28.740Z,3.20
2022-08-01T15:57:55.657Z,3.40
2022-08-01T16:00:22.551Z,3.00
2022-08-01T16:02:49.049Z,3.40
2022-08-01T16:05:17.206Z,3.40
2022-08-01T16:07:59.235Z,3.20
2022-08-01T16:10:29.847Z,3.40
2022-08-01T16:12:56.617Z,3.40
2022-08-01T16:15:31.246Z,3.60
2022-08-01T16:18:08.649Z,3.40
2022-08-01T16:20:36.853Z,3.30
2022-08-01T16:23:05.762Z,3.40
2022-08-01T16:25:32.417Z,3.40
2022-08-01T16:27:58.929Z,3.10
2022-08-01T16:30:25.789Z,3.20
2022-08-01T16:32:54.418Z,3.30
2022-08-01T16:35:33.287Z,3.40
2022-08-01T16:38:04.823Z,3.50
2022-08-01T16:40:40.029Z,3.60
2022-08-01T16:43:19.673Z,3.20
2022-08-01T16:45:47.536Z,3.50
2022-08-01T16:48:16.136Z,3.60
2022-08-01T16:50:43.438Z,4.00
2022-08-01T16:53:11.496Z,3.50
2022-08-01T16:55:42.588Z,3.90
2022-08-01T16:58:27.708Z,3.80
2022-08-01T17:00:57.079Z,4.50
2022-08-01T17:03:46.928Z,4.60
2022-08-01T17:06:12.848Z,5.10
2022-08-01T17:08:46.883Z,4.70
2022-08-01T17:11:14.549Z,5.30
2022-08-01T17:13:41.440Z,7.40
2022-08-01T17:16:09.139Z,10.10
2022-08-01T18:54:34.793Z,7.20
2022-08-01T18:57:01.389Z,6.80
2022-08-01T18:59:28.017Z,6.80
2022-08-01T19:01:54.589Z,6.90
2022-08-01T19:04:21.206Z,7.10
2022-08-01T19:06:47.851Z,6.70
2022-08-01T19:09:14.592Z,7.20
2022-08-01T19:11:47.396Z,7.70
2022-08-01T19:14:13.857Z,8.50
2022-08-01T19:16:40.358Z,8.50
2022-08-01T19:19:09.677Z,7.90
2022-08-01T19:21:42.788Z,7.70
2022-08-01T19:24:17.441Z,7.10
2022-08-01T19:26:59.742Z,6.90
2022-08-01T19:29:38.726Z,7.30
2022-08-01T19:32:10.225Z,8.30
2022-08-01T19:34:49.505Z,7.60
2022-08-01T19:37:16.638Z,7.80
2022-08-01T19:39:45.138Z,6.90
2022-08-01T19:42:13.580Z,7.30
2022-08-01T19:44:40.452Z,7.30
2022-08-01T19:47:07.606Z,7.10
2022-08-01T19:49:34.598Z,6.90
2022-08-01T19:52:02.911Z,6.90
2022-08-01T19:54:38.203Z,6.50
2022-08-01T19:57:07.655Z,6.60
2022-08-01T19:59:36.226Z,6.70
2022-08-01T20:02:03.749Z,7.70
2022-08-01T20:04:30.357Z,7.90
2022-08-01T20:06:57.177Z,8.10
2022-08-01T20:09:24.181Z,10.50
2022-08-01T20:11:53.393Z,7.80
2022-08-01T20:14:23.348Z,7.20
2022-08-01T20:16:52.040Z,7.80
2022-08-01T20:19:22.105Z,7.70
2022-08-01T20:22:02.628Z,7.10
2022-08-01T20:24:41.302Z,7.90
2022-08-01T20:27:11.128Z,8.20
2022-08-01T20:29:39.790Z,7.30
2022-08-01T20:32:09.050Z,7.10
2022-08-01T20:34:38.293Z,7.60
2022-08-01T20:37:13.264Z,7.40
2022-08-01T20:39:43.813Z,7.60
2022-08-01T20:42:11.339Z,7.30
2022-08-01T20:44:38.980Z,7.00
2022-08-01T20:47:05.921Z,7.70
2022-08-01T20:49:36.421Z,8.60
2022-08-01T20:52:12.257Z,9.60
2022-08-01T20:54:43.490Z,9.50
2022-08-01T20:57:21.409Z,9.20
2022-08-01T21:00:02.035Z,9.20
2022-08-01T21:03:15.618Z,7.10
2022-08-01T21:05:56.053Z,7.20
2022-08-01T21:08:41.692Z,7.10
2022-08-01T21:11:16.244Z,7.30
2022-08-01T21:13:48.219Z,9.10
2022-08-01T21:16:32.648Z,9.70
2022-08-01T21:19:20.179Z,9.50
2022-08-01T21:22:26.941Z,9.30
2022-08-01T21:25:03.466Z,9.60
2022-08-01T21:27:33.263Z,7.90
2022-08-01T21:30:07.598Z,8.90
2022-08-01T21:32:36.597Z,8.00
2022-08-01T21:35:05.933Z,8.50
2022-08-01T21:37:44.532Z,8.00
2022-08-01T21:40:11.247Z,9.10
2022-08-01T21:42:40.188Z,10.10
2022-08-01T21:45:09.667Z,8.50
2022-08-01T21:47:37.691Z,8.30
2022-08-01T21:50:05.123Z,9.50
2022-08-01T21:52:47.320Z,8.50
2022-08-01T21:55:34.788Z,8.80
2022-08-01T21:58:16.922Z,8.80
2022-08-01T22:00:53.420Z,9.00
2022-08-01T22:03:36.239Z,8.60
2022-08-01T22:06:04.384Z,9.50
2022-08-01T22:08:39.523Z,11.00
2022-08-01T22:11:11.623Z,10.20
2022-08-01T22:13:38.512Z,10.30
2022-08-01T22:16:07.404Z,10.70
2022-08-01T22:18:36.424Z,11.00
2022-08-01T22:21:03.796Z,10.00
2022-08-01T22:23:35.438Z,9.80
2022-08-01T22:26:05.391Z,9.90
2022-08-01T22:28:35.236Z,9.60
2022-08-01T22:31:02.365Z,10.10
2022-08-01T22:33:29.512Z,10.30
2022-08-01T22:35:56.841Z,10.00
2022-08-01T22:38:24.652Z,9.30
2022-08-01T22:41:24.617Z,9.20
2022-08-01T22:44:08.170Z,9.20
2022-08-01T22:47:03.985Z,10.20
2022-08-01T22:49:57.575Z,9.80
2022-08-01T22:52:29.208Z,10.30
2022-08-01T22:55:08.721Z,10.30
2022-08-01T22:57:50.995Z,9.80
2022-08-01T23:00:18.565Z,9.50
2022-08-01T23:02:54.589Z,9.50
2022-08-01T23:05:25.098Z,9.80
2022-08-01T23:07:57.082Z,10.80
2022-08-01T23:10:26.306Z,9.80
2022-08-01T23:12:55.895Z,10.20
2022-08-01T23:15:24.064Z,11.30
2022-08-01T23:17:52.000Z,10.70
2022-08-01T23:20:18.846Z,10.40
2022-08-01T23:22:45.852Z,10.50
2022-08-01T23:25:15.900Z,10.20
2022-08-01T23:27:51.340Z,10.20
2022-08-01T23:30:33.792Z,9.60
2022-08-01T23:33:00.521Z,10.20
2022-08-01T23:35:28.828Z,9.50
2022-08-01T23:38:01.866Z,9.30
2022-08-01T23:40:32.134Z,10.50
2022-08-01T23:42:59.969Z,10.00
2022-08-01T23:45:26.599Z,10.40
2022-08-01T23:47:53.279Z,10.20
2022-08-01T23:50:22.030Z,11.50
2022-08-01T23:52:54.133Z,10.50
2022-08-01T23:55:31.450Z,11.00
2022-08-01T23:58:06.555Z,10.70
